Fishers, Indiana
Current Conditions -  °F | °C
As of 2:35 PM on Friday 28 Nov 2014 (Local Time) from KMQJ Reporting Station
Clear Clear  
Wind Chill: 20°   Ceiling: Unl
Heat Index: 30°   Visibility: 10mi
Dew Point: 12°   Wind: 14mph
Humidity: 47%   Direction: 170°S
Pressure: 30.18"   Gusts: NA
Location:  39.95°N, 86.02°W
Report Text: KMQJ 281935Z AUTO 17012KT 10SM CLR M01/M11 A3018 RMK AO1
Loading
Personal Weather Stations






























Interactive Weather Map New forecast layout! Learn more

10-Day Weather Forecast

Advertisements
Track Severe Weather on mobile